Portada
METAR-TAF:

METAR-TAF

Aeroports :

Albany, Austràlia

latitud: 34-56-36S, longitud: 117-48-32E, altitud: 71 m

Observació

L'informe es va fer fa 11 minuts, a les 21:03 UTC
Vent 2 kt del Nord/Nord-Est
Temperatura 11°C
Humitat 100%
Pressió 1019 hPa
Visibilitat 10 km o més
Cel cobert a una alçada de 1000 ft

METAR: YABA 132103Z AUTO 03002KT 9999 // OVC010 11/11 Q1019

Hora: 05:14 (21:14 UTC)


TAF: manca

Observacions i pronòstics meteorològics de més de 4000 aeroports (METAR i TAF).

Les estacions disponibles són els punts grocs i vermells al mapa.

Posi el ratolí al punt desitjat per veure el nom de l'estació.

Feu clic per veure les observacions i els pronòstics meteorològics.

Per canviar el mapa: feu clic els botons verds amb una creu de color negre per apropar; al botó verd amb un guió per allunyar la imatge; o en les fletxes verdes per a mapes adjacents.


METAR-TAF: